Airfield :
LOGIN :

Register | Disclaimer

   EN    FR    IT 

 










Legend :    VFR   Marginal VFR   IFR   Intensive IFR   Very Intensive IFR
Visi :
Ceiling :
>= 8 km
>= 3000ft
5 to 8 km
1000 to 3000 ft
1500m to 5 km
500 to 1000 ft
800 to 1500m
200 to 500 ft
< 800m
< 200 ft
Symbols :   Thunderstorms  Fog  Heavy snow  Heavy precipitations  Wind > 20 kt
SIGMETs :     Misc.  Thunderstorms  Icing  Turbulence  Mountain Waves  Volcanic Ashes






- Airport Elevation : 622 ft
- IATA code : BRS


EGGD - Bristol Int.

CURRENT METAR :
  • 280520Z AUTO 26003KT 9999 NCD 07/05 Q1014

EXPIRED METARs :
  • 280450Z AUTO 30002KT 9999 NCD 07/05 Q1014
  • 280420Z AUTO 33001KT 9999 NCD 07/06 Q1014
  • 280350Z AUTO 36001KT 9999 NCD 07/06 Q1014
  • 280320Z AUTO 06002KT 9999 NCD 06/05 Q1014
  • 280250Z AUTO 01002KT 9999 NCD 06/06 Q1015

TAF TAF EGGD
Valid from the 28 at 00:00 until the 29 at 00:00 UTC


272301Z 2800/2824 30005KT 9999 FEW030
TEMPO 2809/2815 BKN012
PROB40
TEMPO 2809/2815 6000 -RADZ BKN008
BECMG 2815/2818 SCT003 BKN007
TEMPO 2815/2821 3000 -RADZ BR BKN003
BECMG 2821/2824 FEW020
ATIS : +44 1275 473 666



MET'MAP, your aeronautical weather chart ! - Copyright ORBIFLY December 2007 - Disclaimer

ORBIFLY MET'MAP TEAM :

Programming & Development : Alexandra Zaïnal
Concept & original design : Baudouin d'Aumeries
Assistance for programming : Marc-Olivier Méhu
Technical & hardware support : Manuel Goepfert

Contact : metmap@orbifly.com




SOURCES & CREDITS :

   NOAA